createdAt,value
2018-03-30T00:00:44.177Z,10.70
2018-03-30T00:03:12.422Z,15.37
2018-03-30T00:05:41.555Z,12.40
2018-03-30T00:08:09.828Z,11.93
2018-03-30T00:10:43.850Z,10.63
2018-03-30T00:13:12.111Z,13.87
2018-03-30T00:15:40.381Z,10.33
2018-03-30T00:18:08.704Z,14.20
2018-03-30T00:20:36.948Z,11.67
2018-03-30T00:23:05.220Z,11.70
2018-03-30T00:25:33.486Z,11.20
2018-03-30T00:28:01.745Z,17.90
2018-03-30T00:30:30.024Z,15.27
2018-03-30T00:32:58.282Z,12.13
2018-03-30T00:35:26.551Z,12.00
2018-03-30T00:37:54.816Z,12.03
2018-03-30T00:40:23.103Z,15.70
2018-03-30T00:42:51.364Z,10.37
2018-03-30T00:45:19.623Z,12.17
2018-03-30T00:47:47.897Z,12.70
2018-03-30T00:50:17.016Z,13.63
2018-03-30T00:52:45.315Z,12.67
2018-03-30T00:55:13.571Z,8.77
2018-03-30T00:57:41.839Z,11.00
2018-03-30T01:00:10.092Z,9.30
2018-03-30T01:02:38.355Z,9.37
2018-03-30T01:05:06.616Z,11.77
2018-03-30T01:07:34.883Z,8.80
2018-03-30T01:10:03.203Z,10.10
2018-03-30T01:12:31.464Z,8.33
2018-03-30T01:14:59.723Z,8.67
2018-03-30T01:17:27.988Z,11.87
2018-03-30T01:19:56.251Z,9.40
2018-03-30T01:22:24.508Z,8.57
2018-03-30T01:24:52.796Z,9.37
2018-03-30T01:27:21.059Z,8.23
2018-03-30T01:29:49.312Z,9.30
2018-03-30T01:32:17.587Z,9.60
2018-03-30T01:34:45.848Z,10.33
2018-03-30T01:37:14.115Z,7.77
2018-03-30T01:39:42.376Z,12.17
2018-03-30T01:42:10.654Z,11.43
2018-03-30T01:44:38.911Z,10.40
2018-03-30T01:47:07.191Z,13.07
2018-03-30T01:49:35.447Z,11.57
2018-03-30T01:52:03.716Z,12.13
2018-03-30T01:54:32.076Z,16.10
2018-03-30T01:57:00.356Z,13.33
2018-03-30T01:59:28.628Z,15.47
2018-03-30T02:01:56.888Z,12.53
2018-03-30T02:04:25.159Z,13.57
2018-03-30T02:06:53.420Z,13.27
2018-03-30T02:09:21.690Z,12.10
2018-03-30T02:11:49.953Z,15.00
2018-03-30T02:14:18.232Z,12.83
2018-03-30T02:16:46.483Z,9.17
2018-03-30T02:19:14.759Z,11.60
2018-03-30T02:21:43.035Z,11.17
2018-03-30T02:24:11.291Z,9.30
2018-03-30T02:26:39.556Z,9.40
2018-03-30T02:29:07.814Z,9.47
2018-03-30T02:31:36.079Z,8.33
2018-03-30T02:34:04.336Z,8.27
2018-03-30T02:36:32.635Z,8.13
2018-03-30T02:39:00.888Z,7.00
2018-03-30T02:41:29.156Z,8.40
2018-03-30T02:43:57.424Z,11.13
2018-03-30T02:46:25.675Z,5.73
2018-03-30T02:48:53.945Z,8.37
2018-03-30T02:51:22.196Z,9.57
2018-03-30T02:53:50.460Z,6.97
2018-03-30T02:56:18.719Z,7.63
2018-03-30T02:58:46.996Z,9.23
2018-03-30T03:01:15.259Z,8.63
2018-03-30T03:03:43.504Z,9.30
2018-03-30T03:06:11.764Z,8.47
2018-03-30T03:08:40.033Z,7.97
2018-03-30T03:11:08.287Z,7.57
2018-03-30T03:13:36.543Z,5.33
2018-03-30T03:16:04.811Z,7.07
2018-03-30T03:18:33.063Z,5.70
2018-03-30T03:21:01.328Z,6.27
2018-03-30T03:23:29.598Z,6.23
2018-03-30T03:25:57.862Z,6.00
2018-03-30T03:28:26.111Z,6.37
2018-03-30T03:30:54.372Z,5.87
2018-03-30T03:33:22.636Z,6.77
2018-03-30T03:35:51.381Z,6.93
2018-03-30T03:38:19.644Z,5.30
2018-03-30T03:40:47.910Z,5.83
2018-03-30T03:43:16.180Z,4.27
2018-03-30T03:45:44.438Z,5.50
2018-03-30T03:48:12.707Z,6.77
2018-03-30T03:50:40.968Z,6.23
2018-03-30T03:53:09.222Z,7.70
2018-03-30T03:55:37.485Z,6.07
2018-03-30T03:58:05.739Z,5.93
2018-03-30T04:00:33.995Z,5.37
2018-03-30T04:03:02.255Z,5.70
2018-03-30T04:05:30.520Z,8.10
2018-03-30T04:07:58.776Z,7.17
2018-03-30T04:10:27.060Z,10.13
2018-03-30T04:12:55.319Z,6.07
2018-03-30T04:15:23.576Z,7.13
2018-03-30T04:17:51.843Z,10.00
2018-03-30T04:20:20.107Z,6.73
2018-03-30T04:22:48.376Z,6.27
2018-03-30T04:25:16.627Z,6.00
2018-03-30T04:27:44.891Z,6.50
2018-03-30T04:30:13.148Z,7.43
2018-03-30T04:32:41.419Z,8.90
2018-03-30T04:35:09.676Z,8.47
2018-03-30T04:37:37.932Z,6.57
2018-03-30T04:40:06.191Z,7.40
2018-03-30T04:42:34.444Z,9.07
2018-03-30T04:45:02.711Z,7.20
2018-03-30T04:47:30.963Z,7.57
2018-03-30T04:49:59.249Z,6.07
2018-03-30T04:52:27.483Z,13.50
2018-03-30T04:54:55.756Z,7.83
2018-03-30T04:57:24.008Z,9.23
2018-03-30T04:59:52.268Z,8.07
2018-03-30T05:02:20.536Z,9.50
2018-03-30T05:04:48.801Z,7.37
2018-03-30T05:07:17.076Z,11.03
2018-03-30T05:09:45.331Z,7.30
2018-03-30T05:12:13.595Z,9.30
2018-03-30T05:14:41.852Z,8.90
2018-03-30T05:17:10.123Z,8.03
2018-03-30T05:19:38.381Z,7.93
2018-03-30T05:22:06.689Z,10.93
2018-03-30T05:24:34.906Z,12.00
2018-03-30T05:27:03.166Z,10.40
2018-03-30T05:29:31.439Z,11.57
2018-03-30T05:31:59.699Z,12.80
2018-03-30T05:34:27.973Z,10.90
2018-03-30T05:36:56.226Z,8.93
2018-03-30T05:39:24.507Z,10.90
2018-03-30T05:41:52.768Z,10.03
2018-03-30T05:44:21.029Z,8.03
2018-03-30T05:46:49.293Z,7.40
2018-03-30T05:49:17.558Z,10.30
2018-03-30T05:51:45.815Z,6.80
2018-03-30T05:54:14.067Z,8.53
2018-03-30T05:56:42.334Z,8.07
2018-03-30T05:59:10.590Z,6.40
2018-03-30T06:01:38.867Z,8.10
2018-03-30T06:04:07.128Z,11.07
2018-03-30T06:06:35.388Z,8.60
2018-03-30T06:09:03.660Z,10.47
2018-03-30T06:11:31.920Z,7.87
2018-03-30T06:14:00.184Z,7.93
2018-03-30T06:16:28.445Z,7.80
2018-03-30T06:18:56.707Z,7.90
2018-03-30T06:21:24.962Z,9.27
2018-03-30T06:23:53.228Z,7.83
2018-03-30T06:26:21.495Z,10.03
2018-03-30T06:28:49.757Z,9.43
2018-03-30T06:31:18.015Z,6.87
2018-03-30T06:33:46.271Z,8.20
2018-03-30T06:36:14.536Z,7.87
2018-03-30T06:38:42.791Z,8.00
2018-03-30T06:41:11.056Z,7.47
2018-03-30T06:43:39.315Z,9.07
2018-03-30T06:46:07.580Z,12.00
2018-03-30T06:48:35.839Z,8.20
2018-03-30T06:51:04.104Z,10.10
2018-03-30T06:53:32.359Z,8.83
2018-03-30T06:56:00.615Z,9.67
2018-03-30T06:58:28.883Z,7.70
2018-03-30T07:00:57.143Z,8.37
2018-03-30T07:03:25.419Z,10.67
2018-03-30T07:05:53.682Z,7.50
2018-03-30T07:08:21.976Z,9.33
2018-03-30T07:10:50.264Z,7.00
2018-03-30T07:13:18.526Z,12.77
2018-03-30T07:15:46.804Z,6.53
2018-03-30T07:18:15.059Z,7.37
2018-03-30T07:20:43.328Z,8.50
2018-03-30T07:23:11.596Z,5.83
2018-03-30T07:25:39.940Z,9.27
2018-03-30T07:28:08.208Z,7.13
2018-03-30T07:30:36.496Z,7.33
2018-03-30T07:33:04.755Z,8.43
2018-03-30T07:35:33.020Z,10.13
2018-03-30T07:38:01.303Z,7.13
2018-03-30T07:40:29.560Z,9.57
2018-03-30T07:42:57.822Z,8.47
2018-03-30T07:45:26.087Z,9.53
2018-03-30T07:47:54.355Z,9.67
2018-03-30T07:50:22.615Z,8.40
2018-03-30T07:52:50.900Z,8.67
2018-03-30T07:55:19.160Z,6.70
2018-03-30T07:57:47.421Z,8.93
2018-03-30T08:00:15.692Z,7.20
2018-03-30T08:02:43.957Z,8.30
2018-03-30T08:05:12.232Z,9.53
2018-03-30T08:07:40.503Z,10.47
2018-03-30T08:10:08.771Z,9.63
2018-03-30T08:12:37.044Z,7.90
2018-03-30T08:15:05.308Z,8.77
2018-03-30T08:17:33.575Z,10.00
2018-03-30T08:20:01.847Z,8.00
2018-03-30T08:22:33.375Z,8.87
2018-03-30T08:25:01.669Z,7.60
2018-03-30T08:27:30.175Z,7.90
2018-03-30T08:29:58.486Z,8.30
2018-03-30T08:32:26.759Z,9.07
2018-03-30T08:34:55.027Z,7.77
2018-03-30T08:37:23.303Z,7.80
2018-03-30T08:39:51.660Z,8.03
2018-03-30T08:42:19.932Z,9.30
2018-03-30T08:44:48.309Z,8.17
2018-03-30T08:47:16.631Z,9.53
2018-03-30T08:49:44.907Z,9.50
2018-03-30T08:52:13.187Z,8.10
2018-03-30T08:54:41.461Z,7.60
2018-03-30T08:57:09.725Z,9.97
2018-03-30T08:59:37.996Z,9.80
2018-03-30T09:02:06.264Z,11.00
2018-03-30T09:04:34.548Z,11.90
2018-03-30T09:07:02.836Z,10.93
2018-03-30T09:09:31.115Z,10.97
2018-03-30T09:11:59.395Z,8.30
2018-03-30T09:14:27.679Z,10.60
2018-03-30T09:16:55.952Z,9.10
2018-03-30T09:19:24.258Z,10.20
2018-03-30T09:21:52.568Z,10.30
2018-03-30T09:24:21.112Z,8.93
2018-03-30T09:26:50.048Z,10.73
2018-03-30T09:29:18.308Z,9.20
2018-03-30T09:31:46.580Z,9.87
2018-03-30T09:34:14.916Z,9.03
2018-03-30T09:36:43.187Z,9.10
2018-03-30T09:39:11.469Z,7.80
2018-03-30T09:41:39.759Z,10.23
2018-03-30T09:44:08.172Z,7.10
2018-03-30T09:46:36.502Z,9.57
2018-03-30T09:49:04.772Z,8.93
2018-03-30T09:51:33.055Z,9.53
2018-03-30T09:54:01.321Z,6.73
2018-03-30T09:56:29.605Z,9.07
2018-03-30T09:58:59.392Z,8.53
2018-03-30T10:01:27.653Z,8.60
2018-03-30T10:03:55.943Z,8.93
2018-03-30T10:06:24.187Z,7.73
2018-03-30T10:08:52.463Z,8.00
2018-03-30T10:11:20.757Z,8.20
2018-03-30T10:13:49.040Z,8.53
2018-03-30T10:16:17.303Z,7.33
2018-03-30T10:18:45.641Z,8.97
2018-03-30T10:21:13.844Z,5.40
2018-03-30T10:23:42.108Z,8.17
2018-03-30T10:26:10.379Z,5.77
2018-03-30T10:28:38.660Z,5.43
2018-03-30T10:31:07.003Z,6.77
2018-03-30T10:33:35.268Z,6.13
2018-03-30T10:36:03.561Z,5.10
2018-03-30T10:38:31.816Z,7.00
2018-03-30T10:41:00.103Z,4.20
2018-03-30T10:43:28.363Z,6.47
2018-03-30T10:45:56.631Z,4.27
2018-03-30T10:48:24.896Z,5.57
2018-03-30T10:50:53.166Z,3.87
2018-03-30T10:53:21.430Z,3.13
2018-03-30T10:55:49.707Z,5.03
2018-03-30T10:58:18.015Z,4.93
2018-03-30T11:00:46.279Z,3.30
2018-03-30T11:03:14.554Z,2.83
2018-03-30T11:05:48.367Z,3.57
2018-03-30T11:08:16.652Z,2.30
2018-03-30T11:10:44.925Z,4.70
2018-03-30T11:13:13.229Z,2.97
2018-03-30T11:15:41.491Z,4.17
2018-03-30T11:18:09.764Z,4.03
2018-03-30T11:20:38.025Z,4.00
2018-03-30T11:23:06.300Z,3.97
2018-03-30T11:25:34.568Z,5.37
2018-03-30T11:28:02.891Z,3.97
2018-03-30T11:30:31.168Z,2.83
2018-03-30T11:32:59.440Z,4.40
2018-03-30T11:35:27.720Z,4.53
2018-03-30T11:37:55.993Z,3.90
2018-03-30T11:40:24.848Z,5.27
2018-03-30T11:42:53.112Z,3.47
2018-03-30T11:45:21.388Z,4.97
2018-03-30T11:47:49.652Z,4.23
2018-03-30T11:50:17.933Z,4.03
2018-03-30T11:52:46.209Z,3.90
2018-03-30T11:55:14.474Z,3.77
2018-03-30T11:57:42.740Z,5.50
2018-03-30T12:00:11.020Z,4.83
2018-03-30T12:02:39.310Z,5.03
2018-03-30T12:05:07.576Z,5.67
2018-03-30T12:07:35.844Z,3.93
2018-03-30T12:10:04.111Z,6.53
2018-03-30T12:12:32.429Z,6.07
2018-03-30T12:15:00.697Z,3.73
2018-03-30T12:17:28.969Z,3.27
2018-03-30T12:19:57.244Z,7.73
2018-03-30T12:22:25.510Z,3.83
2018-03-30T12:24:53.788Z,5.07
2018-03-30T12:27:22.059Z,4.17
2018-03-30T12:29:50.335Z,5.00
2018-03-30T12:32:18.640Z,5.43
2018-03-30T12:34:46.903Z,5.70
2018-03-30T12:37:15.164Z,7.47
2018-03-30T12:39:43.436Z,4.10
2018-03-30T12:42:11.736Z,6.10
2018-03-30T12:44:40.017Z,8.13
2018-03-30T12:47:08.280Z,6.57
2018-03-30T12:49:36.555Z,3.20
2018-03-30T12:52:04.828Z,3.63
2018-03-30T12:54:33.104Z,3.47
2018-03-30T12:57:01.374Z,4.93
2018-03-30T12:59:29.651Z,3.47
2018-03-30T13:01:57.937Z,4.90
2018-03-30T13:04:26.221Z,4.23
2018-03-30T13:06:54.483Z,3.13
2018-03-30T13:09:22.753Z,4.07
2018-03-30T13:11:51.017Z,4.83
2018-03-30T13:14:19.350Z,3.77
2018-03-30T13:16:47.571Z,6.77
2018-03-30T13:19:15.843Z,4.03
2018-03-30T13:21:44.125Z,3.63
2018-03-30T13:24:12.395Z,4.50
2018-03-30T13:26:40.700Z,5.37
2018-03-30T13:29:08.940Z,4.87
2018-03-30T13:31:37.213Z,3.93
2018-03-30T13:34:05.495Z,3.00
2018-03-30T13:36:33.780Z,4.13
2018-03-30T13:39:02.044Z,3.40
2018-03-30T13:41:30.339Z,3.47
2018-03-30T13:43:58.630Z,4.23
2018-03-30T13:46:26.892Z,2.93
2018-03-30T13:48:55.540Z,5.13
2018-03-30T13:51:32.284Z,3.70
2018-03-30T13:54:00.555Z,3.53
2018-03-30T13:56:29.731Z,4.27
2018-03-30T13:59:15.441Z,5.07
2018-03-30T14:01:49.248Z,5.57
2018-03-30T14:04:37.956Z,2.47
2018-03-30T14:07:14.664Z,4.03
2018-03-30T14:09:43.716Z,2.93
2018-03-30T14:12:25.549Z,4.30
2018-03-30T14:14:53.828Z,3.67
2018-03-30T14:17:23.912Z,4.33
2018-03-30T14:19:52.963Z,3.33
2018-03-30T14:22:24.751Z,2.83
2018-03-30T14:24:55.779Z,4.97
2018-03-30T14:27:26.675Z,5.97
2018-03-30T14:29:57.659Z,2.50
2018-03-30T14:32:26.763Z,5.63
2018-03-30T14:37:53.511Z,6.20
2018-03-30T14:40:22.707Z,3.83
2018-03-30T14:42:53.716Z,3.30
2018-03-30T14:45:24.130Z,2.73
2018-03-30T14:47:55.816Z,2.63
2018-03-30T14:50:24.900Z,4.43
2018-03-30T14:52:57.060Z,3.80
2018-03-30T14:55:36.167Z,5.10
2018-03-30T14:58:16.299Z,4.93
2018-03-30T15:00:46.301Z,4.97
2018-03-30T15:03:17.119Z,4.47
2018-03-30T15:05:58.197Z,3.50
2018-03-30T15:08:45.723Z,4.17
2018-03-30T15:11:27.450Z,4.43
2018-03-30T15:13:57.112Z,4.77
2018-03-30T15:19:52.144Z,3.10
2018-03-30T15:22:21.032Z,5.97
2018-03-30T15:24:50.097Z,3.30
2018-03-30T15:27:38.198Z,4.67
2018-03-30T15:33:06.771Z,4.10
2018-03-30T15:38:36.616Z,2.70
2018-03-30T15:41:04.875Z,3.80
2018-03-30T15:43:34.816Z,5.80
2018-03-30T15:49:16.012Z,5.20
2018-03-30T15:52:00.084Z,3.17
2018-03-30T15:54:27.803Z,4.03
2018-03-30T15:56:56.079Z,4.30
2018-03-30T15:59:24.347Z,3.47
2018-03-30T16:01:52.611Z,4.20
2018-03-30T16:04:20.880Z,5.37
2018-03-30T16:06:49.148Z,6.83
2018-03-30T16:09:24.123Z,6.87
2018-03-30T16:11:53.854Z,5.97
2018-03-30T16:14:22.131Z,5.30
2018-03-30T16:16:50.395Z,9.67
2018-03-30T16:19:18.136Z,6.40
2018-03-30T16:21:45.873Z,5.40
2018-03-30T16:24:13.605Z,5.30
2018-03-30T16:26:41.330Z,5.13
2018-03-30T16:29:09.083Z,6.03
2018-03-30T16:31:36.826Z,7.53
2018-03-30T16:34:04.552Z,5.73
2018-03-30T16:36:32.284Z,5.70
2018-03-30T16:39:00.034Z,5.87
2018-03-30T16:41:27.483Z,5.27
2018-03-30T16:43:54.974Z,5.13
2018-03-30T16:46:22.411Z,7.37
2018-03-30T16:48:49.862Z,6.47
2018-03-30T16:51:17.318Z,4.47
2018-03-30T16:53:44.760Z,5.80
2018-03-30T16:56:12.216Z,5.47
2018-03-30T16:58:39.688Z,5.87
2018-03-30T17:01:07.149Z,5.67
2018-03-30T17:03:34.599Z,7.90
2018-03-30T17:06:02.056Z,6.03
2018-03-30T17:08:29.505Z,7.07
2018-03-30T17:10:56.966Z,8.40
2018-03-30T17:13:24.433Z,6.27
2018-03-30T17:15:51.883Z,8.77
2018-03-30T17:18:19.380Z,9.13
2018-03-30T17:20:46.836Z,7.47
2018-03-30T17:23:14.283Z,6.13
2018-03-30T17:25:41.728Z,6.23
2018-03-30T17:28:09.300Z,7.70
2018-03-30T17:30:36.860Z,6.80
2018-03-30T17:33:04.341Z,8.13
2018-03-30T17:35:31.789Z,7.53
2018-03-30T17:37:59.243Z,5.80
2018-03-30T17:40:26.692Z,6.77
2018-03-30T17:42:54.180Z,7.67
2018-03-30T17:45:21.624Z,4.67
2018-03-30T17:47:49.080Z,5.10
2018-03-30T17:50:16.523Z,5.50
2018-03-30T17:52:44.000Z,5.93
2018-03-30T17:55:11.446Z,5.63
2018-03-30T17:57:38.899Z,4.50
2018-03-30T18:00:06.340Z,3.60
2018-03-30T18:02:33.795Z,4.60
2018-03-30T18:05:01.236Z,4.17
2018-03-30T18:07:28.705Z,4.10
2018-03-30T18:09:56.144Z,4.30
2018-03-30T18:12:23.601Z,4.10
2018-03-30T18:14:51.056Z,4.37
2018-03-30T18:17:18.576Z,3.10
2018-03-30T18:19:46.078Z,3.67
2018-03-30T18:22:13.529Z,3.07
2018-03-30T18:24:40.983Z,3.47
2018-03-30T18:27:08.435Z,3.07
2018-03-30T18:29:35.891Z,3.57
2018-03-30T18:32:03.339Z,2.63
2018-03-30T18:34:30.800Z,2.60
2018-03-30T18:36:58.249Z,2.70
2018-03-30T18:39:25.703Z,4.90
2018-03-30T18:41:53.151Z,3.43
2018-03-30T18:44:20.604Z,2.60
2018-03-30T18:46:48.044Z,2.67
2018-03-30T18:49:15.501Z,3.90
2018-03-30T18:51:42.943Z,4.93
2018-03-30T18:54:10.401Z,4.93
2018-03-30T18:56:37.895Z,3.67
2018-03-30T18:59:05.348Z,6.07
2018-03-30T19:01:32.792Z,4.70
2018-03-30T19:04:00.235Z,3.40
2018-03-30T19:06:27.700Z,3.17
2018-03-30T19:08:55.135Z,4.27
2018-03-30T19:11:22.600Z,2.77
2018-03-30T19:13:50.048Z,4.37
2018-03-30T19:16:17.503Z,4.13
2018-03-30T19:18:44.953Z,4.97
2018-03-30T19:21:12.404Z,5.20
2018-03-30T19:23:39.856Z,4.03
2018-03-30T19:26:07.319Z,5.87
2018-03-30T19:28:41.720Z,5.97
2018-03-30T19:31:09.173Z,4.03
2018-03-30T19:33:38.599Z,3.00
2018-03-30T19:36:06.057Z,7.07
2018-03-30T19:38:33.692Z,3.83
2018-03-30T19:41:02.167Z,5.73
2018-03-30T19:43:29.607Z,5.20
2018-03-30T19:46:07.519Z,6.00
2018-03-30T19:48:34.968Z,3.10
2018-03-30T19:51:02.448Z,2.93
2018-03-30T19:53:29.907Z,3.10
2018-03-30T19:55:57.359Z,5.63
2018-03-30T19:58:24.817Z,4.00
2018-03-30T20:00:52.267Z,3.20
2018-03-30T20:03:19.731Z,4.57
2018-03-30T20:05:47.183Z,4.50
2018-03-30T20:08:14.635Z,7.43
2018-03-30T20:10:42.080Z,6.23
2018-03-30T20:13:09.553Z,7.47
2018-03-30T20:15:37.006Z,5.13
2018-03-30T20:18:04.451Z,7.83
2018-03-30T20:20:31.924Z,9.17
2018-03-30T20:22:59.379Z,6.27
2018-03-30T20:25:26.828Z,5.67
2018-03-30T20:27:54.280Z,3.80
2018-03-30T20:30:21.727Z,2.87
2018-03-30T20:32:49.203Z,2.73
2018-03-30T20:35:16.658Z,2.63
2018-03-30T20:37:44.095Z,3.03
2018-03-30T20:40:11.547Z,5.53
2018-03-30T20:42:39.029Z,4.23
2018-03-30T20:45:06.472Z,5.33
2018-03-30T20:47:33.943Z,4.40
2018-03-30T20:50:01.405Z,4.87
2018-03-30T20:52:28.876Z,4.20
2018-03-30T20:54:56.341Z,3.40
2018-03-30T20:57:23.795Z,3.90
2018-03-30T20:59:51.256Z,4.37
2018-03-30T21:02:18.699Z,5.23
2018-03-30T21:04:46.315Z,3.63
2018-03-30T21:07:13.740Z,4.10
2018-03-30T21:09:41.188Z,3.60
2018-03-30T21:12:08.641Z,3.50
2018-03-30T21:14:36.109Z,3.10
2018-03-30T21:17:03.559Z,4.23
2018-03-30T21:19:31.021Z,3.77
2018-03-30T21:21:58.463Z,3.67
2018-03-30T21:24:25.920Z,4.20
2018-03-30T21:26:53.428Z,3.27
2018-03-30T21:29:20.916Z,4.03
2018-03-30T21:31:48.355Z,5.33
2018-03-30T21:34:15.832Z,4.93
2018-03-30T21:36:43.293Z,4.10
2018-03-30T21:39:10.761Z,3.93
2018-03-30T21:41:38.224Z,4.50
2018-03-30T21:44:05.681Z,4.77
2018-03-30T21:46:33.148Z,5.30
2018-03-30T21:49:00.612Z,3.97
2018-03-30T21:51:28.065Z,5.40
2018-03-30T21:53:55.512Z,6.17
2018-03-30T21:56:22.968Z,4.50
2018-03-30T21:58:50.419Z,5.33
2018-03-30T22:01:17.893Z,4.97
2018-03-30T22:03:45.339Z,3.30
2018-03-30T22:06:12.783Z,4.80
2018-03-30T22:08:40.240Z,4.57
2018-03-30T22:11:07.695Z,7.10
2018-03-30T22:13:35.148Z,5.70
2018-03-30T22:16:02.603Z,3.47
2018-03-30T22:18:30.059Z,5.37
2018-03-30T22:20:57.515Z,4.57
2018-03-30T22:23:24.991Z,6.40
2018-03-30T22:25:52.439Z,5.73
2018-03-30T22:28:19.903Z,5.43
2018-03-30T22:30:47.351Z,5.60
2018-03-30T22:33:14.851Z,6.53
2018-03-30T22:35:42.251Z,7.53
2018-03-30T22:38:09.712Z,5.23
2018-03-30T22:40:37.160Z,8.27
2018-03-30T22:43:04.611Z,6.87
2018-03-30T22:45:32.060Z,5.50
2018-03-30T22:47:59.516Z,6.30
2018-03-30T22:50:26.956Z,3.77
2018-03-30T22:52:54.420Z,5.57
2018-03-30T22:55:21.866Z,5.80
2018-03-30T22:57:49.311Z,3.93
2018-03-30T23:00:16.789Z,4.60
2018-03-30T23:02:44.236Z,5.67
2018-03-30T23:05:11.992Z,6.20
2018-03-30T23:07:39.711Z,7.33
2018-03-30T23:10:07.439Z,6.33
2018-03-30T23:12:35.176Z,5.40
2018-03-30T23:15:02.907Z,5.43
2018-03-30T23:17:30.638Z,7.40
2018-03-30T23:19:58.372Z,4.87
2018-03-30T23:22:26.097Z,4.17
2018-03-30T23:24:53.831Z,4.93
2018-03-30T23:27:21.582Z,7.03
2018-03-30T23:29:49.315Z,7.20
2018-03-30T23:32:17.038Z,5.57
2018-03-30T23:34:44.776Z,5.80
2018-03-30T23:37:12.505Z,8.87
2018-03-30T23:39:40.245Z,6.40
2018-03-30T23:42:08.007Z,7.93
2018-03-30T23:44:35.677Z,7.33
2018-03-30T23:47:03.405Z,8.17
2018-03-30T23:49:31.137Z,6.97
2018-03-30T23:51:58.867Z,9.40
2018-03-30T23:54:26.593Z,9.33
2018-03-30T23:56:54.323Z,8.70
2018-03-30T23:59:22.047Z,9.73
